Sorrento, Florida
Current Conditions -  °F | °C
As of 7:28 AM on Sunday 23 Nov 2014 (Local Time) from KLEE Reporting Station
Overcast Overcast  
Wind Chill: 70°   Ceiling: 800
Heat Index: 70°   Visibility: 9mi
Dew Point: 69°   Wind: 9mph
Humidity: 97%   Direction: 160°SSE
Pressure: 30.01"   Gusts: NA
Location:  28.81°N, 81.56°W
Report Text: KLEE 231228Z 16008KT 9SM OVC008 21/21 A3001 RMK AO2 T02110206
Loading
Personal Weather Stations






























Interactive Weather Map New forecast layout! Learn more

10-Day Weather Forecast

Advertisements
Track Severe Weather on mobile